sensor_id;sensor_type;location;lat;lon;timestamp;P1;durP1;ratioP1;P2;durP2;ratioP2
74483;SDS011;62942;52.462;10.846;2023-11-18T00:00:35;9.5;;;14;;
74483;SDS011;62942;52.462;10.846;2023-11-18T00:01:45;9.6;;;13.8;;
74483;SDS011;62942;52.462;10.846;2023-11-18T00:02:55;10;;;15.6;;
74483;SDS011;62942;52.462;10.846;2023-11-18T00:04:05;10.1;;;14.7;;
74483;SDS011;62942;52.462;10.846;2023-11-18T00:05:15;10.3;;;15.8;;
74483;SDS011;62942;52.462;10.846;2023-11-18T00:06:15;10.2;;;15.5;;
74483;SDS011;62942;52.462;10.846;2023-11-18T00:07:25;10.5;;;15.1;;
74483;SDS011;62942;52.462;10.846;2023-11-18T00:08:35;10;;;13.3;;
74483;SDS011;62942;52.462;10.846;2023-11-18T00:10:05;10.4;;;15.4;;
74483;SDS011;62942;52.462;10.846;2023-11-18T00:11:05;10.1;;;14.9;;
74483;SDS011;62942;52.462;10.846;2023-11-18T00:12:15;10.4;;;15.2;;
74483;SDS011;62942;52.462;10.846;2023-11-18T00:13:25;10.4;;;15;;
74483;SDS011;62942;52.462;10.846;2023-11-18T00:14:35;10.9;;;15.9;;
74483;SDS011;62942;52.462;10.846;2023-11-18T00:15:35;10.5;;;16.1;;
74483;SDS011;62942;52.462;10.846;2023-11-18T00:16:45;10.7;;;16.3;;
74483;SDS011;62942;52.462;10.846;2023-11-18T00:17:45;10.6;;;15;;
74483;SDS011;62942;52.462;10.846;2023-11-18T00:18:55;10.8;;;17.3;;
74483;SDS011;62942;52.462;10.846;2023-11-18T00:20:05;10.8;;;16.2;;
74483;SDS011;62942;52.462;10.846;2023-11-18T00:21:05;11.8;;;18.3;;
74483;SDS011;62942;52.462;10.846;2023-11-18T00:22:15;11.3;;;17.3;;
74483;SDS011;62942;52.462;10.846;2023-11-18T00:23:25;11.3;;;17.1;;
74483;SDS011;62942;52.462;10.846;2023-11-18T00:24:35;11.3;;;16.6;;
74483;SDS011;62942;52.462;10.846;2023-11-18T00:25:45;11;;;17.2;;
74483;SDS011;62942;52.462;10.846;2023-11-18T00:26:55;10.9;;;17.4;;
74483;SDS011;62942;52.462;10.846;2023-11-18T00:28:05;10.8;;;15.8;;
74483;SDS011;62942;52.462;10.846;2023-11-18T00:29:15;11.4;;;17.9;;
74483;SDS011;62942;52.462;10.846;2023-11-18T00:30:25;11;;;15.9;;
74483;SDS011;62942;52.462;10.846;2023-11-18T00:31:35;10.6;;;15.9;;
74483;SDS011;62942;52.462;10.846;2023-11-18T00:32:35;10.9;;;16.4;;
74483;SDS011;62942;52.462;10.846;2023-11-18T00:33:45;10.9;;;16.7;;
74483;SDS011;62942;52.462;10.846;2023-11-18T00:34:55;10.9;;;18.2;;
74483;SDS011;62942;52.462;10.846;2023-11-18T00:36:05;10.9;;;15.4;;
74483;SDS011;62942;52.462;10.846;2023-11-18T00:37:05;11;;;16;;
74483;SDS011;62942;52.462;10.846;2023-11-18T00:38:15;11.5;;;18;;
74483;SDS011;62942;52.462;10.846;2023-11-18T00:39:15;10.6;;;17.4;;
74483;SDS011;62942;52.462;10.846;2023-11-18T00:40:15;11.1;;;16.6;;
74483;SDS011;62942;52.462;10.846;2023-11-18T00:41:25;11.6;;;17.4;;
74483;SDS011;62942;52.462;10.846;2023-11-18T00:42:35;11.6;;;18.3;;
74483;SDS011;62942;52.462;10.846;2023-11-18T00:43:45;11.8;;;17.2;;
74483;SDS011;62942;52.462;10.846;2023-11-18T00:44:45;11.8;;;17.7;;
74483;SDS011;62942;52.462;10.846;2023-11-18T00:45:55;11.5;;;16.9;;
74483;SDS011;62942;52.462;10.846;2023-11-18T00:47:05;11.5;;;18.3;;
74483;SDS011;62942;52.462;10.846;2023-11-18T00:48:05;11.6;;;17.8;;
74483;SDS011;62942;52.462;10.846;2023-11-18T00:49:15;12;;;19.3;;
74483;SDS011;62942;52.462;10.846;2023-11-18T00:50:25;11.3;;;17.6;;
74483;SDS011;62942;52.462;10.846;2023-11-18T00:51:35;11.3;;;17.4;;
74483;SDS011;62942;52.462;10.846;2023-11-18T00:52:35;11.5;;;18.5;;
74483;SDS011;62942;52.462;10.846;2023-11-18T00:53:45;11.8;;;19.6;;
74483;SDS011;62942;52.462;10.846;2023-11-18T00:54:45;11.8;;;19;;
74483;SDS011;62942;52.462;10.846;2023-11-18T00:55:55;11.6;;;18.4;;
74483;SDS011;62942;52.462;10.846;2023-11-18T00:57:05;11.7;;;17.7;;
74483;SDS011;62942;52.462;10.846;2023-11-18T00:58:15;11.9;;;19;;
74483;SDS011;62942;52.462;10.846;2023-11-18T00:59:25;12;;;19.4;;
74483;SDS011;62942;52.462;10.846;2023-11-18T01:00:25;11.7;;;18.8;;
74483;SDS011;62942;52.462;10.846;2023-11-18T01:01:35;11.9;;;18.9;;
74483;SDS011;62942;52.462;10.846;2023-11-18T01:02:45;12.3;;;20.5;;
74483;SDS011;62942;52.462;10.846;2023-11-18T01:03:55;12.2;;;20;;
74483;SDS011;62942;52.462;10.846;2023-11-18T01:05:05;12.3;;;20.6;;
74483;SDS011;62942;52.462;10.846;2023-11-18T01:06:05;12.1;;;19.5;;
74483;SDS011;62942;52.462;10.846;2023-11-18T01:07:05;12.1;;;21.3;;
74483;SDS011;62942;52.462;10.846;2023-11-18T01:08:15;12.1;;;20.1;;
74483;SDS011;62942;52.462;10.846;2023-11-18T01:09:25;12.4;;;20;;
74483;SDS011;62942;52.462;10.846;2023-11-18T01:10:35;13;;;22.1;;
74483;SDS011;62942;52.462;10.846;2023-11-18T01:11:45;13.1;;;21.6;;
74483;SDS011;62942;52.462;10.846;2023-11-18T01:12:45;12.8;;;21.5;;
74483;SDS011;62942;52.462;10.846;2023-11-18T01:13:55;12.8;;;22.3;;
74483;SDS011;62942;52.462;10.846;2023-11-18T01:14:55;12.4;;;21.3;;
74483;SDS011;62942;52.462;10.846;2023-11-18T01:16:05;12.5;;;21.5;;
74483;SDS011;62942;52.462;10.846;2023-11-18T01:17:15;12.5;;;21.1;;
74483;SDS011;62942;52.462;10.846;2023-11-18T01:18:25;13;;;22.8;;
74483;SDS011;62942;52.462;10.846;2023-11-18T01:19:35;12.4;;;21.1;;
74483;SDS011;62942;52.462;10.846;2023-11-18T01:20:44;12.8;;;21.5;;
74483;SDS011;62942;52.462;10.846;2023-11-18T01:21:54;12.8;;;21.6;;
74483;SDS011;62942;52.462;10.846;2023-11-18T01:23:04;13;;;20.6;;
74483;SDS011;62942;52.462;10.846;2023-11-18T01:24:14;12.6;;;21.4;;
74483;SDS011;62942;52.462;10.846;2023-11-18T01:25:15;13.3;;;20.9;;
74483;SDS011;62942;52.462;10.846;2023-11-18T01:26:24;12.6;;;22.2;;
74483;SDS011;62942;52.462;10.846;2023-11-18T01:27:34;13.2;;;22.3;;
74483;SDS011;62942;52.462;10.846;2023-11-18T01:28:34;12.4;;;20.6;;
74483;SDS011;62942;52.462;10.846;2023-11-18T01:29:45;13.1;;;22.6;;
74483;SDS011;62942;52.462;10.846;2023-11-18T01:30:54;12.5;;;20.9;;
74483;SDS011;62942;52.462;10.846;2023-11-18T01:32:05;12.9;;;21.3;;
74483;SDS011;62942;52.462;10.846;2023-11-18T01:33:14;13.1;;;21.4;;
74483;SDS011;62942;52.462;10.846;2023-11-18T01:34:14;12.8;;;22.1;;
74483;SDS011;62942;52.462;10.846;2023-11-18T01:35:24;13;;;21.5;;
74483;SDS011;62942;52.462;10.846;2023-11-18T01:36:25;12.8;;;22.9;;
74483;SDS011;62942;52.462;10.846;2023-11-18T01:37:34;12.4;;;20.4;;
74483;SDS011;62942;52.462;10.846;2023-11-18T01:38:44;13.2;;;22.1;;
74483;SDS011;62942;52.462;10.846;2023-11-18T01:39:54;13.1;;;21.9;;
74483;SDS011;62942;52.462;10.846;2023-11-18T01:40:54;12.9;;;21.8;;
74483;SDS011;62942;52.462;10.846;2023-11-18T01:41:55;12.8;;;19.8;;
74483;SDS011;62942;52.462;10.846;2023-11-18T01:43:04;13;;;22.7;;
74483;SDS011;62942;52.462;10.846;2023-11-18T01:44:14;12.8;;;21.6;;
74483;SDS011;62942;52.462;10.846;2023-11-18T01:45:24;12.3;;;20.8;;
74483;SDS011;62942;52.462;10.846;2023-11-18T01:46:34;12.7;;;22.1;;
74483;SDS011;62942;52.462;10.846;2023-11-18T01:47:44;12.6;;;20.6;;
74483;SDS011;62942;52.462;10.846;2023-11-18T01:48:55;12.7;;;22.1;;
74483;SDS011;62942;52.462;10.846;2023-11-18T01:50:05;12.7;;;21.6;;
74483;SDS011;62942;52.462;10.846;2023-11-18T01:51:05;12.8;;;20.3;;
74483;SDS011;62942;52.462;10.846;2023-11-18T01:52:14;12.8;;;20.8;;
74483;SDS011;62942;52.462;10.846;2023-11-18T01:53:24;12.8;;;22.5;;
74483;SDS011;62942;52.462;10.846;2023-11-18T01:54:35;12.8;;;21.3;;
74483;SDS011;62942;52.462;10.846;2023-11-18T01:55:44;12.8;;;21.4;;
74483;SDS011;62942;52.462;10.846;2023-11-18T01:56:54;13;;;23.1;;
74483;SDS011;62942;52.462;10.846;2023-11-18T01:58:04;12.7;;;21.2;;
74483;SDS011;62942;52.462;10.846;2023-11-18T01:59:14;13.5;;;23;;
74483;SDS011;62942;52.462;10.846;2023-11-18T02:00:24;13.7;;;23.4;;
74483;SDS011;62942;52.462;10.846;2023-11-18T02:01:25;13.1;;;21.1;;
74483;SDS011;62942;52.462;10.846;2023-11-18T02:02:34;13.4;;;23.2;;
74483;SDS011;62942;52.462;10.846;2023-11-18T02:03:35;13.8;;;24.5;;
74483;SDS011;62942;52.462;10.846;2023-11-18T02:04:44;13.5;;;23.4;;
74483;SDS011;62942;52.462;10.846;2023-11-18T02:05:44;13.7;;;24;;
74483;SDS011;62942;52.462;10.846;2023-11-18T02:06:54;13.9;;;23.8;;
74483;SDS011;62942;52.462;10.846;2023-11-18T02:07:54;14.1;;;25;;
74483;SDS011;62942;52.462;10.846;2023-11-18T02:09:04;13.5;;;24;;
74483;SDS011;62942;52.462;10.846;2023-11-18T02:10:14;14;;;23.2;;
74483;SDS011;62942;52.462;10.846;2023-11-18T02:11:28;13.3;;;22.2;;
74483;SDS011;62942;52.462;10.846;2023-11-18T02:12:37;14;;;23.4;;
74483;SDS011;62942;52.462;10.846;2023-11-18T02:13:46;13.7;;;22.9;;
74483;SDS011;62942;52.462;10.846;2023-11-18T02:14:55;13.6;;;21.9;;
74483;SDS011;62942;52.462;10.846;2023-11-18T02:16:04;14;;;23.3;;
74483;SDS011;62942;52.462;10.846;2023-11-18T02:17:14;13.4;;;22.5;;
74483;SDS011;62942;52.462;10.846;2023-11-18T02:18:24;13.6;;;24.1;;
74483;SDS011;62942;52.462;10.846;2023-11-18T02:19:34;13.3;;;22.9;;
74483;SDS011;62942;52.462;10.846;2023-11-18T02:20:44;13.4;;;22.4;;
74483;SDS011;62942;52.462;10.846;2023-11-18T02:21:54;13.1;;;21.3;;
74483;SDS011;62942;52.462;10.846;2023-11-18T02:22:54;13.4;;;21.6;;
74483;SDS011;62942;52.462;10.846;2023-11-18T02:23:54;13.7;;;23.5;;
74483;SDS011;62942;52.462;10.846;2023-11-18T02:25:05;13;;;22.6;;
74483;SDS011;62942;52.462;10.846;2023-11-18T02:26:20;13.1;;;22.2;;
74483;SDS011;62942;52.462;10.846;2023-11-18T02:27:24;12.8;;;21.5;;
74483;SDS011;62942;52.462;10.846;2023-11-18T02:28:34;12.5;;;20.1;;
74483;SDS011;62942;52.462;10.846;2023-11-18T02:29:45;12.6;;;21;;
74483;SDS011;62942;52.462;10.846;2023-11-18T02:30:55;12.8;;;20.3;;
74483;SDS011;62942;52.462;10.846;2023-11-18T02:32:06;12.7;;;21.3;;
74483;SDS011;62942;52.462;10.846;2023-11-18T02:33:15;12.5;;;20.5;;
74483;SDS011;62942;52.462;10.846;2023-11-18T02:34:25;12.8;;;22.7;;
74483;SDS011;62942;52.462;10.846;2023-11-18T02:35:35;12.3;;;20.1;;
74483;SDS011;62942;52.462;10.846;2023-11-18T02:36:35;12.3;;;20.4;;
74483;SDS011;62942;52.462;10.846;2023-11-18T02:37:46;12;;;19.6;;
74483;SDS011;62942;52.462;10.846;2023-11-18T02:38:54;12.5;;;20.6;;
74483;SDS011;62942;52.462;10.846;2023-11-18T02:40:00;12.4;;;19.6;;
74483;SDS011;62942;52.462;10.846;2023-11-18T02:41:06;12.1;;;19.4;;
74483;SDS011;62942;52.462;10.846;2023-11-18T02:42:14;12;;;19.2;;
74483;SDS011;62942;52.462;10.846;2023-11-18T02:43:24;12.3;;;20.2;;
74483;SDS011;62942;52.462;10.846;2023-11-18T02:44:24;11.8;;;18.4;;
74483;SDS011;62942;52.462;10.846;2023-11-18T02:45:35;12.3;;;19.8;;
74483;SDS011;62942;52.462;10.846;2023-11-18T02:46:44;11.6;;;19.1;;
74483;SDS011;62942;52.462;10.846;2023-11-18T02:47:54;11.9;;;18.8;;
74483;SDS011;62942;52.462;10.846;2023-11-18T02:48:54;12.1;;;18.2;;
74483;SDS011;62942;52.462;10.846;2023-11-18T02:50:05;11.8;;;17.4;;
74483;SDS011;62942;52.462;10.846;2023-11-18T02:51:14;11.8;;;19.5;;
74483;SDS011;62942;52.462;10.846;2023-11-18T02:52:24;11.9;;;18.7;;
74483;SDS011;62942;52.462;10.846;2023-11-18T02:53:34;12;;;19.2;;
74483;SDS011;62942;52.462;10.846;2023-11-18T02:54:34;11.4;;;17.8;;
74483;SDS011;62942;52.462;10.846;2023-11-18T02:55:44;11.5;;;18;;
74483;SDS011;62942;52.462;10.846;2023-11-18T02:56:54;11.2;;;18.2;;
74483;SDS011;62942;52.462;10.846;2023-11-18T02:58:04;11.1;;;17;;
74483;SDS011;62942;52.462;10.846;2023-11-18T02:59:14;11.1;;;17;;
74483;SDS011;62942;52.462;10.846;2023-11-18T03:00:24;10.8;;;17.5;;
74483;SDS011;62942;52.462;10.846;2023-11-18T03:01:34;11.6;;;18.4;;
74483;SDS011;62942;52.462;10.846;2023-11-18T03:02:45;11.1;;;18.4;;
74483;SDS011;62942;52.462;10.846;2023-11-18T03:03:54;10.8;;;17.3;;
74483;SDS011;62942;52.462;10.846;2023-11-18T03:04:54;10.6;;;15.6;;
74483;SDS011;62942;52.462;10.846;2023-11-18T03:06:05;10.7;;;16.4;;
74483;SDS011;62942;52.462;10.846;2023-11-18T03:07:14;10.3;;;17;;
74483;SDS011;62942;52.462;10.846;2023-11-18T03:08:24;10.5;;;15.5;;
74483;SDS011;62942;52.462;10.846;2023-11-18T03:09:24;10.7;;;16.4;;
74483;SDS011;62942;52.462;10.846;2023-11-18T03:10:24;11;;;16.9;;
74483;SDS011;62942;52.462;10.846;2023-11-18T03:11:34;10.8;;;16.9;;
74483;SDS011;62942;52.462;10.846;2023-11-18T03:12:44;11;;;19.5;;
74483;SDS011;62942;52.462;10.846;2023-11-18T03:13:54;10.5;;;15.8;;
74483;SDS011;62942;52.462;10.846;2023-11-18T03:14:54;10.3;;;15.9;;
74483;SDS011;62942;52.462;10.846;2023-11-18T03:16:06;10.4;;;17;;
74483;SDS011;62942;52.462;10.846;2023-11-18T03:17:14;10.7;;;17;;
74483;SDS011;62942;52.462;10.846;2023-11-18T03:18:24;10.2;;;16;;
74483;SDS011;62942;52.462;10.846;2023-11-18T03:19:34;10.6;;;16.8;;
74483;SDS011;62942;52.462;10.846;2023-11-18T03:20:44;10;;;15.7;;
74483;SDS011;62942;52.462;10.846;2023-11-18T03:21:44;10;;;15.1;;
74483;SDS011;62942;52.462;10.846;2023-11-18T03:22:54;9.8;;;15.4;;
74483;SDS011;62942;52.462;10.846;2023-11-18T03:24:04;9.7;;;14.4;;
74483;SDS011;62942;52.462;10.846;2023-11-18T03:25:14;10.2;;;15.5;;
74483;SDS011;62942;52.462;10.846;2023-11-18T03:26:25;9.7;;;14.8;;
74483;SDS011;62942;52.462;10.846;2023-11-18T03:27:34;9.6;;;15.5;;
74483;SDS011;62942;52.462;10.846;2023-11-18T03:28:44;9;;;14.3;;
74483;SDS011;62942;52.462;10.846;2023-11-18T03:29:54;9.1;;;14.1;;
74483;SDS011;62942;52.462;10.846;2023-11-18T03:31:04;9;;;13;;
74483;SDS011;62942;52.462;10.846;2023-11-18T03:32:05;8.9;;;13.1;;
74483;SDS011;62942;52.462;10.846;2023-11-18T03:33:14;9.2;;;14;;
74483;SDS011;62942;52.462;10.846;2023-11-18T03:34:14;9.1;;;13.6;;
74483;SDS011;62942;52.462;10.846;2023-11-18T03:35:24;9;;;13.5;;
74483;SDS011;62942;52.462;10.846;2023-11-18T03:36:34;9;;;15;;
74483;SDS011;62942;52.462;10.846;2023-11-18T03:37:44;8.9;;;13.9;;
74483;SDS011;62942;52.462;10.846;2023-11-18T03:38:44;8.9;;;12.8;;
74483;SDS011;62942;52.462;10.846;2023-11-18T03:39:54;8.6;;;13.3;;
74483;SDS011;62942;52.462;10.846;2023-11-18T03:41:04;8.9;;;14.5;;
74483;SDS011;62942;52.462;10.846;2023-11-18T03:42:14;8.4;;;12.4;;
74483;SDS011;62942;52.462;10.846;2023-11-18T03:43:14;8.7;;;13.6;;
74483;SDS011;62942;52.462;10.846;2023-11-18T03:44:24;8.5;;;12.6;;
74483;SDS011;62942;52.462;10.846;2023-11-18T03:45:34;8.5;;;13.5;;
74483;SDS011;62942;52.462;10.846;2023-11-18T03:46:44;8.5;;;12.7;;
74483;SDS011;62942;52.462;10.846;2023-11-18T03:47:44;8.8;;;13.4;;
74483;SDS011;62942;52.462;10.846;2023-11-18T03:48:54;8.5;;;12.9;;
74483;SDS011;62942;52.462;10.846;2023-11-18T03:50:04;8.5;;;12.9;;
74483;SDS011;62942;52.462;10.846;2023-11-18T03:51:04;8.3;;;12.1;;
74483;SDS011;62942;52.462;10.846;2023-11-18T03:52:14;8.4;;;12.9;;
74483;SDS011;62942;52.462;10.846;2023-11-18T03:53:24;8.6;;;12.9;;
74483;SDS011;62942;52.462;10.846;2023-11-18T03:54:34;8.7;;;13.2;;
74483;SDS011;62942;52.462;10.846;2023-11-18T03:55:44;8.3;;;12.9;;
74483;SDS011;62942;52.462;10.846;2023-11-18T03:56:44;8.2;;;12.4;;
74483;SDS011;62942;52.462;10.846;2023-11-18T03:57:54;8.6;;;13;;
74483;SDS011;62942;52.462;10.846;2023-11-18T03:58:54;8.6;;;15;;
74483;SDS011;62942;52.462;10.846;2023-11-18T04:00:05;8.5;;;14.5;;
74483;SDS011;62942;52.462;10.846;2023-11-18T04:01:04;8.5;;;12.7;;
74483;SDS011;62942;52.462;10.846;2023-11-18T04:02:14;8.5;;;12.1;;
74483;SDS011;62942;52.462;10.846;2023-11-18T04:03:14;8.4;;;12.9;;
74483;SDS011;62942;52.462;10.846;2023-11-18T04:04:24;8.8;;;13;;
74483;SDS011;62942;52.462;10.846;2023-11-18T04:05:34;8.4;;;12.4;;
74483;SDS011;62942;52.462;10.846;2023-11-18T04:06:34;8.9;;;12.7;;
74483;SDS011;62942;52.462;10.846;2023-11-18T04:07:44;8.7;;;13.1;;
74483;SDS011;62942;52.462;10.846;2023-11-18T04:08:44;8.4;;;13.1;;
74483;SDS011;62942;52.462;10.846;2023-11-18T04:09:54;8.6;;;14.2;;
74483;SDS011;62942;52.462;10.846;2023-11-18T04:11:04;9.1;;;14.6;;
74483;SDS011;62942;52.462;10.846;2023-11-18T04:12:14;9.1;;;14.3;;
74483;SDS011;62942;52.462;10.846;2023-11-18T04:13:24;8.9;;;14.5;;
74483;SDS011;62942;52.462;10.846;2023-11-18T04:14:34;9.3;;;15.2;;
74483;SDS011;62942;52.462;10.846;2023-11-18T04:15:44;8.9;;;15.3;;
74483;SDS011;62942;52.462;10.846;2023-11-18T04:16:54;9;;;14.6;;
74483;SDS011;62942;52.462;10.846;2023-11-18T04:18:04;8.8;;;13.9;;
74483;SDS011;62942;52.462;10.846;2023-11-18T04:19:14;9.3;;;14.8;;
74483;SDS011;62942;52.462;10.846;2023-11-18T04:20:24;9.1;;;14.2;;
74483;SDS011;62942;52.462;10.846;2023-11-18T04:21:24;8.8;;;14.6;;
74483;SDS011;62942;52.462;10.846;2023-11-18T04:22:24;9.5;;;14.9;;
74483;SDS011;62942;52.462;10.846;2023-11-18T04:23:34;9.5;;;14;;
74483;SDS011;62942;52.462;10.846;2023-11-18T04:24:44;9.1;;;15;;
74483;SDS011;62942;52.462;10.846;2023-11-18T04:25:54;9.2;;;14.6;;
74483;SDS011;62942;52.462;10.846;2023-11-18T04:27:04;9.3;;;14.7;;
74483;SDS011;62942;52.462;10.846;2023-11-18T04:28:14;9.3;;;15;;
74483;SDS011;62942;52.462;10.846;2023-11-18T04:29:14;9.6;;;15.5;;
74483;SDS011;62942;52.462;10.846;2023-11-18T04:30:14;9.3;;;15.4;;
74483;SDS011;62942;52.462;10.846;2023-11-18T04:31:24;9.1;;;14.8;;
74483;SDS011;62942;52.462;10.846;2023-11-18T04:32:34;9.6;;;16.4;;
74483;SDS011;62942;52.462;10.846;2023-11-18T04:33:44;9.8;;;16;;
74483;SDS011;62942;52.462;10.846;2023-11-18T04:34:44;9.7;;;17;;
74483;SDS011;62942;52.462;10.846;2023-11-18T04:35:55;9.4;;;15.4;;
74483;SDS011;62942;52.462;10.846;2023-11-18T04:37:04;9.9;;;16;;
74483;SDS011;62942;52.462;10.846;2023-11-18T04:38:04;10.3;;;17.2;;
74483;SDS011;62942;52.462;10.846;2023-11-18T04:39:04;10;;;16.3;;
74483;SDS011;62942;52.462;10.846;2023-11-18T04:40:14;10.6;;;17.4;;
74483;SDS011;62942;52.462;10.846;2023-11-18T04:41:24;10.8;;;18.1;;
74483;SDS011;62942;52.462;10.846;2023-11-18T04:42:34;10.4;;;17.3;;
74483;SDS011;62942;52.462;10.846;2023-11-18T04:43:34;11;;;19.3;;
74483;SDS011;62942;52.462;10.846;2023-11-18T04:44:44;10.6;;;18.7;;
74483;SDS011;62942;52.462;10.846;2023-11-18T04:45:54;10.5;;;17.8;;
74483;SDS011;62942;52.462;10.846;2023-11-18T04:46:54;10.3;;;17.8;;
74483;SDS011;62942;52.462;10.846;2023-11-18T04:47:54;10.4;;;16.4;;
74483;SDS011;62942;52.462;10.846;2023-11-18T04:49:04;10.6;;;18;;
74483;SDS011;62942;52.462;10.846;2023-11-18T04:50:04;10.6;;;18.2;;
74483;SDS011;62942;52.462;10.846;2023-11-18T04:51:14;11.2;;;19.4;;
74483;SDS011;62942;52.462;10.846;2023-11-18T04:52:24;10.9;;;18.2;;
74483;SDS011;62942;52.462;10.846;2023-11-18T04:53:34;11.5;;;18.3;;
74483;SDS011;62942;52.462;10.846;2023-11-18T04:54:44;11.1;;;19.3;;
74483;SDS011;62942;52.462;10.846;2023-11-18T04:55:44;11.7;;;19.9;;
74483;SDS011;62942;52.462;10.846;2023-11-18T04:56:54;11.5;;;19.4;;
74483;SDS011;62942;52.462;10.846;2023-11-18T04:58:04;11.3;;;20.2;;
74483;SDS011;62942;52.462;10.846;2023-11-18T04:59:04;11.7;;;20.2;;
74483;SDS011;62942;52.462;10.846;2023-11-18T05:00:14;11.4;;;21.6;;
74483;SDS011;62942;52.462;10.846;2023-11-18T05:01:14;11.7;;;20.6;;
74483;SDS011;62942;52.462;10.846;2023-11-18T05:02:14;11.6;;;20.2;;
74483;SDS011;62942;52.462;10.846;2023-11-18T05:03:24;11.7;;;19.7;;
74483;SDS011;62942;52.462;10.846;2023-11-18T05:04:24;11.9;;;21.6;;
74483;SDS011;62942;52.462;10.846;2023-11-18T05:05:34;11.9;;;20.5;;
74483;SDS011;62942;52.462;10.846;2023-11-18T05:06:34;12.5;;;22.7;;
74483;SDS011;62942;52.462;10.846;2023-11-18T05:07:34;12.2;;;22.6;;
74483;SDS011;62942;52.462;10.846;2023-11-18T05:08:34;11.5;;;20.5;;
74483;SDS011;62942;52.462;10.846;2023-11-18T05:09:44;12.2;;;22.4;;
74483;SDS011;62942;52.462;10.846;2023-11-18T05:10:54;11.9;;;22.2;;
74483;SDS011;62942;52.462;10.846;2023-11-18T05:12:04;11.7;;;22;;
74483;SDS011;62942;52.462;10.846;2023-11-18T05:13:04;12.7;;;22.8;;
74483;SDS011;62942;52.462;10.846;2023-11-18T05:14:14;12.3;;;22.2;;
74483;SDS011;62942;52.462;10.846;2023-11-18T05:15:24;12.7;;;23.1;;
74483;SDS011;62942;52.462;10.846;2023-11-18T05:16:24;12.1;;;21.9;;
74483;SDS011;62942;52.462;10.846;2023-11-18T05:17:34;11.9;;;21.9;;
74483;SDS011;62942;52.462;10.846;2023-11-18T05:18:44;11.3;;;19.6;;
74483;SDS011;62942;52.462;10.846;2023-11-18T05:19:54;12;;;22;;
74483;SDS011;62942;52.462;10.846;2023-11-18T05:21:04;12.7;;;23.1;;
74483;SDS011;62942;52.462;10.846;2023-11-18T05:22:04;12.5;;;22;;
74483;SDS011;62942;52.462;10.846;2023-11-18T05:23:14;12;;;21.6;;
74483;SDS011;62942;52.462;10.846;2023-11-18T05:24:14;12.1;;;22.3;;
74483;SDS011;62942;52.462;10.846;2023-11-18T05:25:24;12.3;;;23.5;;
74483;SDS011;62942;52.462;10.846;2023-11-18T05:26:34;12;;;21.8;;
74483;SDS011;62942;52.462;10.846;2023-11-18T05:27:44;12.7;;;23.3;;
74483;SDS011;62942;52.462;10.846;2023-11-18T05:28:54;12.8;;;25.4;;
74483;SDS011;62942;52.462;10.846;2023-11-18T05:29:54;12.4;;;23.4;;
74483;SDS011;62942;52.462;10.846;2023-11-18T05:31:04;12.4;;;22.3;;
74483;SDS011;62942;52.462;10.846;2023-11-18T05:32:14;11.5;;;21.6;;
74483;SDS011;62942;52.462;10.846;2023-11-18T05:33:14;11.9;;;22.4;;
74483;SDS011;62942;52.462;10.846;2023-11-18T05:34:24;11.8;;;20.4;;
74483;SDS011;62942;52.462;10.846;2023-11-18T05:35:34;12.3;;;21.9;;
74483;SDS011;62942;52.462;10.846;2023-11-18T05:36:44;12.2;;;22.7;;
74483;SDS011;62942;52.462;10.846;2023-11-18T05:37:44;12.4;;;23.1;;
74483;SDS011;62942;52.462;10.846;2023-11-18T05:38:54;12.2;;;22.7;;
74483;SDS011;62942;52.462;10.846;2023-11-18T05:39:54;12.3;;;22.3;;
74483;SDS011;62942;52.462;10.846;2023-11-18T05:40:54;12.4;;;25.5;;
74483;SDS011;62942;52.462;10.846;2023-11-18T05:42:04;12.9;;;25.1;;
74483;SDS011;62942;52.462;10.846;2023-11-18T05:43:14;13.1;;;24.4;;
74483;SDS011;62942;52.462;10.846;2023-11-18T05:44:14;12.5;;;22.2;;
74483;SDS011;62942;52.462;10.846;2023-11-18T05:45:24;12.9;;;24.8;;
74483;SDS011;62942;52.462;10.846;2023-11-18T05:46:24;12.5;;;23;;
74483;SDS011;62942;52.462;10.846;2023-11-18T05:47:35;11.7;;;21.2;;
74483;SDS011;62942;52.462;10.846;2023-11-18T05:48:44;12.4;;;23.4;;
74483;SDS011;62942;52.462;10.846;2023-11-18T05:49:44;12.3;;;23.1;;
74483;SDS011;62942;52.462;10.846;2023-11-18T05:50:54;12.3;;;23.9;;
74483;SDS011;62942;52.462;10.846;2023-11-18T05:52:04;12;;;21.8;;
74483;SDS011;62942;52.462;10.846;2023-11-18T05:53:14;11.9;;;21.3;;
74483;SDS011;62942;52.462;10.846;2023-11-18T05:54:14;12.8;;;23.7;;
74483;SDS011;62942;52.462;10.846;2023-11-18T05:55:24;13.3;;;25.9;;
74483;SDS011;62942;52.462;10.846;2023-11-18T05:56:34;14.2;;;27.1;;
74483;SDS011;62942;52.462;10.846;2023-11-18T05:57:44;13.3;;;24.5;;
74483;SDS011;62942;52.462;10.846;2023-11-18T05:58:44;13.7;;;25.4;;
74483;SDS011;62942;52.462;10.846;2023-11-18T05:59:54;13.5;;;24.9;;
74483;SDS011;62942;52.462;10.846;2023-11-18T06:01:04;13.1;;;23.6;;
74483;SDS011;62942;52.462;10.846;2023-11-18T06:02:04;13.3;;;24.2;;
74483;SDS011;62942;52.462;10.846;2023-11-18T06:03:04;13;;;23;;
74483;SDS011;62942;52.462;10.846;2023-11-18T06:04:14;15.4;;;33.3;;
74483;SDS011;62942;52.462;10.846;2023-11-18T06:05:14;21.1;;;37;;
74483;SDS011;62942;52.462;10.846;2023-11-18T06:06:15;15.2;;;28.4;;
74483;SDS011;62942;52.462;10.846;2023-11-18T06:07:24;14.8;;;27.1;;
74483;SDS011;62942;52.462;10.846;2023-11-18T06:08:24;15.2;;;30.3;;
74483;SDS011;62942;52.462;10.846;2023-11-18T06:09:34;16.2;;;31.1;;
74483;SDS011;62942;52.462;10.846;2023-11-18T06:10:34;15.5;;;29.8;;
74483;SDS011;62942;52.462;10.846;2023-11-18T06:11:44;15;;;27.2;;
74483;SDS011;62942;52.462;10.846;2023-11-18T06:12:54;14.6;;;28.7;;
74483;SDS011;62942;52.462;10.846;2023-11-18T06:14:04;15.7;;;30.8;;
74483;SDS011;62942;52.462;10.846;2023-11-18T06:15:04;15.5;;;28.4;;
74483;SDS011;62942;52.462;10.846;2023-11-18T06:16:14;15;;;28;;
74483;SDS011;62942;52.462;10.846;2023-11-18T06:17:24;16;;;31.8;;
74483;SDS011;62942;52.462;10.846;2023-11-18T06:18:34;15.8;;;32.9;;
74483;SDS011;62942;52.462;10.846;2023-11-18T06:19:44;15.5;;;29.9;;
74483;SDS011;62942;52.462;10.846;2023-11-18T06:20:54;15.8;;;31.3;;
74483;SDS011;62942;52.462;10.846;2023-11-18T06:22:04;15.6;;;30.6;;
74483;SDS011;62942;52.462;10.846;2023-11-18T06:23:04;15.6;;;31.9;;
74483;SDS011;62942;52.462;10.846;2023-11-18T06:24:14;15.7;;;34.2;;
74483;SDS011;62942;52.462;10.846;2023-11-18T06:25:14;16.1;;;30.5;;
74483;SDS011;62942;52.462;10.846;2023-11-18T06:26:24;15.9;;;33.2;;
74483;SDS011;62942;52.462;10.846;2023-11-18T06:27:24;15.7;;;30.9;;
74483;SDS011;62942;52.462;10.846;2023-11-18T06:28:34;15.6;;;31.5;;
74483;SDS011;62942;52.462;10.846;2023-11-18T06:29:44;15.6;;;30.5;;
74483;SDS011;62942;52.462;10.846;2023-11-18T06:30:44;16.5;;;32.2;;
74483;SDS011;62942;52.462;10.846;2023-11-18T06:31:54;16.2;;;31.3;;
74483;SDS011;62942;52.462;10.846;2023-11-18T06:33:04;17.3;;;32.5;;
74483;SDS011;62942;52.462;10.846;2023-11-18T06:34:04;18.1;;;35.9;;
74483;SDS011;62942;52.462;10.846;2023-11-18T06:35:04;18.3;;;35.4;;
74483;SDS011;62942;52.462;10.846;2023-11-18T06:36:04;17.9;;;36.4;;
74483;SDS011;62942;52.462;10.846;2023-11-18T06:37:14;16.4;;;30.6;;
74483;SDS011;62942;52.462;10.846;2023-11-18T06:38:24;17.7;;;35;;
74483;SDS011;62942;52.462;10.846;2023-11-18T06:39:34;17.4;;;34;;
74483;SDS011;62942;52.462;10.846;2023-11-18T06:40:44;17.1;;;32.7;;
74483;SDS011;62942;52.462;10.846;2023-11-18T06:41:54;17;;;32.6;;
74483;SDS011;62942;52.462;10.846;2023-11-18T06:42:54;18.2;;;35.8;;